Middletown, CT (06457)

17:53:EDT den 30. september 2014 (GMT -0400)
Middletown Framing | Change Station
CLOSE
Current Station
Personlig værstasjon
Location: Middletown, CT
Høyde over havet: 56 ft
Nearby Weather Stations

H.o.h 56 ft 41.56 °N, 72.65 °W | Updated 1 minute ago

Overskyet
Overskyet
62.2 °F
Feels Like 62.2 °F
N
2.0
Vind Variabel Vind from SV
Gusts 4.0 mph

I dag
High -- | Low -- °F
--% Chance of Precip.
I går
High -- | Low -- °F
Precip. -- tommer
6:46 AM 6:34 PM
Økende sigd, 40% visible
Lufttrykk 29.96 tommer
Sikt 10.0 eng. mil
Skyet For det meste skyet 1200 ft
For det meste skyet 7000 ft
Overskyet 9500 ft
Duggpunkt 60 °F
Fuktighet 93%
Regn 0.00 tommer
Snødybde Not available.
UV 0 av 12
Pollen 1.40 av 12
Ozon God
Flu Activity Not available.
SPECI KMMK 302108Z AUTO 02005KT 10SM BKN012 BKN070 OVC095 17/13 A2996 RMK AO2 T01670133 TSNO PNO

More Conditions Fewer Conditions

Lufttrykk 29.96 tommer
Sikt 10.0 eng. mil
Skyet For det meste skyet 1200 ft
For det meste skyet 7000 ft
Overskyet 9500 ft
Duggpunkt 60 °F
Fuktighet 93%
Regn 0.00 tommer
Snødybde Not available.
UV 0 av 12
Pollen 1.40 av 12
Ozon God
Flu Activity Not available.
SPECI KMMK 302108Z AUTO 02005KT 10SM BKN012 BKN070 OVC095 17/13 A2996 RMK AO2 T01670133 TSNO PNO

More Conditions Fewer Conditions

10-Day Weather Forecast

Almanac

Astronomi

Sep. 30, 2014 Oppgang Nedgang
Virkelig tid 06:46 EDT 18:34 EDT
Tussmørke 06:18 EDT 19:01 EDT
Nautisk skumring 05:46 EDT 19:33 EDT
Astronomisk skumring 05:13 EDT 20:06 EDT
Månen 12:55 EDT 22:58 EDT
Lengde av synlig lys 12h 43m
Dagens lengde
11h 47m
Tomorrow will be 2m 45s shorter.
Økende sigd, 40% of the Moon is Illuminated
I dag
Økende sigd
Oct 1
Første kvarter
Oct 8
Fullmåne
Oct 15
Siste kvarter
Oct 23
Ny

Dagens maks og min

State Highs State Lows

Community

WunderPhotos

Upload Photos

1,757,755 photos uploaded!

Nearby

Luftkvalitet

  Luftkvalitet AQ Indeks Forurensing
I går God
OZONE
God
OZONE
Tirsdag God
PM2.5
Tirsdag God
OZONE
Onsdag God
PM2.5
Onsdag God
OZONE

Snødybde

Stasjon Depth Høyde over havet
No new snow has been reported.

Earthquake Activity

By Distance Mag. Time & Date
No recent earthquake activity has been reported nearby.
Minimum magnitude displayed is 2.5.

Coastal Water Temperatures

Sted Temperatur
New London, CT 66.9 °F
Newport, RI 66.0 °F
Quonset Point, RI 66.0 °F
Conimicut Light, RI 66.9 °F
Providence, RI 66.0 °F

Nearby Weather Stations